Baraboo, WI (53913)

4:13 AM CST on December 04, 2016 (GMT -0600)
Guppy St | | Change Station
Active Advisory: Winter Weather Advisory

Elev 873 ft 43.46 °N, 89.74 °W | Updated 20 seconds ago

Overcast
Overcast
31.1 °F
Feels Like 31 °F
N
0.0
Wind Variable Wind from SW

Today
High -- | Low -- °F
--% Chance of Precip.
Yesterday
High -- | Low -- °F
Precip. -- in
Pressure 30.15 in
Visibility 10.0 miles
Clouds Overcast 3900 ft
Windchill 31 °F
Dew Point 30 °F
Humidity 96%
Rainfall 0.00 in
Snow Depth Not available.
7:15 AM 4:23 PM
Waxing Crescent, 21% visible
METAR KDLL 040955Z AUTO 17005KT 10SM OVC039 00/M03 A3015 RMK AO2 T10051029
Pressure 30.15 in
Visibility 10.0 miles
Clouds Overcast 3900 ft
Windchill 31 °F
Dew Point 30 °F
Humidity 96%
Rainfall 0.00 in
Snow Depth Not available.
7:15 AM 4:23 PM
Waxing Crescent, 21% visible
METAR KDLL 040955Z AUTO 17005KT 10SM OVC039 00/M03 A3015 RMK AO2 T10051029

10-Day Weather Forecast

Almanac

Astronomy

Dec. 04, 2016 Rise Set
Actual Time
Civil Twilight
Nautical Twilight
Astronomical Twilight
Moon
Length of Visible Light
Length of Day
Tomorrow will be .
, % of the Moon is Illuminated

Today's Extremes

State Highs State Lows

Community

WunderPhotos

Upload Photos

1,955,591 photos uploaded!

WunderBlog® & News

Nearby

Air Quality

  Air Quality AQ Index Pollutant
Not available.

Snow Depth

Station Depth Elevation

Earthquake Activity

City Distance Mag. Time & Date
Minimum magnitude displayed is 2.5.

Coastal Water Temperatures

Place Temperature

Stations

Nearby Weather Stations

Station Location Temp. Windchill Dew Point Humidity Wind Precip. Elev Updated Type
                   

Watches & Warnings

Winter Weather Advisory
Issued: 3:28 AM CST Dec. 4, 2016 – National Weather Service

... Winter Weather Advisory remains in effect until 6 PM CST this
evening...

A Winter Weather Advisory remains in effect until 6 PM CST this
evening.

* Timing... steady snow beginning early this morning... tapering
off in the mid to late afternoon.

* Snow accumulations... 3 to 5 inches.

* Winds... south to southeast increasing to 10 to 15 mph with gusts
to 20 mph.

* Impacts... reduced visibility and slippery spots on untreated
roads creating hazardous travel.

Precautionary/preparedness actions...

A Winter Weather Advisory for snow means that periods of snow
will cause primarily travel difficulties. Be prepared for snow
covered roads and limited visibilities... and use caution while
driving.